Time;durP1;ratioP1;P1;durP2;ratioP2;P2;SDS_P1;SDS_P2;PMS_P1;PMS_P2;Temp;Humidity;BMP_temperature;BMP_pressure;BME280_temperature;BME280_humidity;BME280_pressure;Samples;Min_cycle;Max_cycle;Signal;HPM_P1;HPM_P2
2022/07/26 00:09:44;;;;;;;6.70;4.40;;;;;;;19.64;48.69;97916.91;430929;1276;111192;-40
2022/07/26 00:19:54;;;;;;;5.70;4.00;;;;;;;19.53;49.09;97913.50;430916;1276;108955;-41
2022/07/26 00:30:01;;;;;;;6.70;5.00;;;;;;;19.53;49.30;97905.27;430638;1276;97559;-40
2022/07/26 00:40:11;;;;;;;8.70;3.90;;;;;;;19.51;49.41;97901.98;430704;1276;111238;-40
2022/07/26 00:50:19;;;;;;;4.50;4.10;;;;;;;19.50;49.67;97900.18;430712;1276;108865;-41
2022/07/26 01:10:32;;;;;;;6.60;3.90;;;;;;;19.28;50.39;97879.23;430394;1276;97583;-41
2022/07/26 01:20:39;;;;;;;5.20;3.60;;;;;;;19.26;50.67;97861.92;430429;1276;111244;-41
2022/07/26 01:30:46;;;;;;;4.00;3.40;;;;;;;19.30;50.89;97840.91;430549;1277;108694;-41
2022/07/26 01:40:53;;;;;;;7.50;3.70;;;;;;;19.34;50.90;97821.25;430669;1277;97910;-40
2022/07/26 01:51:01;;;;;;;4.10;3.60;;;;;;;19.34;51.09;97820.27;430862;1276;110755;-41
2022/07/26 02:01:08;;;;;;;4.60;3.70;;;;;;;19.33;51.45;97818.12;430579;1276;108798;-40
2022/07/26 02:11:15;;;;;;;6.00;3.80;;;;;;;19.24;51.54;97812.39;431031;1276;97857;-39
2022/07/26 02:21:23;;;;;;;6.10;4.30;;;;;;;19.16;51.77;97805.68;431089;1276;97896;-39
2022/07/26 02:31:30;;;;;;;6.70;4.30;;;;;;;18.99;52.30;97802.86;430523;1276;110959;-40
2022/07/26 02:41:37;;;;;;;;;;;;;;;18.82;52.96;97791.95;430892;1276;108840;-40
2022/07/26 02:51:45;;;;;;;7.20;4.40;;;;;;;18.72;53.43;97787.34;431049;1275;97900;-42
2022/07/26 03:01:52;;;;;;;8.00;4.80;;;;;;;18.69;53.68;97775.02;430816;1276;97532;-42
2022/07/26 03:11:59;;;;;;;9.30;5.90;;;;;;;18.78;53.76;97773.96;430637;1275;109454;-41
2022/07/26 03:22:06;;;;;;;12.90;5.20;;;;;;;18.77;54.12;97765.45;430633;1276;97844;-41
2022/07/26 03:32:13;;;;;;;10.90;5.60;;;;;;;18.78;54.36;97758.59;430894;1275;111214;-40
2022/07/26 03:42:20;;;;;;;9.20;5.40;;;;;;;18.96;54.53;97750.52;430594;1276;108819;-42
2022/07/26 03:52:28;;;;;;;13.00;5.80;;;;;;;19.58;54.26;97741.02;430821;1276;98726;-41
2022/07/26 04:02:35;;;;;;;9.20;5.50;;;;;;;19.86;54.14;97734.95;430759;1276;97525;-41
2022/07/26 04:12:42;;;;;;;9.30;6.20;;;;;;;20.35;53.90;97734.38;430876;1275;111742;-41
2022/07/26 04:22:49;;;;;;;20.70;6.30;;;;;;;21.49;52.96;97736.41;430859;1275;108722;-41
2022/07/26 04:32:57;;;;;;;8.90;5.40;;;;;;;22.54;51.84;97729.80;430977;1276;98474;-40
2022/07/26 04:43:04;;;;;;;13.50;5.60;;;;;;;23.23;50.64;97725.17;430852;1276;98177;-41
2022/07/26 04:53:15;;;;;;;11.90;6.90;;;;;;;22.68;50.59;97749.11;430957;1276;110775;-40
2022/07/26 05:13:27;;;;;;;12.50;6.50;;;;;;;22.37;50.85;97800.14;430580;1276;97908;-41
2022/07/26 05:23:36;;;;;;;9.80;6.60;;;;;;;22.29;50.98;97810.40;430611;1276;97936;-43
2022/07/26 05:33:43;;;;;;;10.90;7.50;;;;;;;22.20;51.06;97819.02;430700;1276;111351;-42
2022/07/26 05:43:51;;;;;;;13.90;7.90;;;;;;;22.10;51.27;97838.91;430977;1276;107756;-41
2022/07/26 05:53:58;;;;;;;9.10;7.10;;;;;;;22.05;51.39;97858.42;430659;1276;109369;-41
2022/07/26 06:04:05;;;;;;;9.20;7.70;;;;;;;21.88;51.72;97860.55;430993;1276;98181;-41
2022/07/26 06:14:13;;;;;;;14.70;7.90;;;;;;;21.75;52.09;97865.77;430678;1274;111236;-42
2022/07/26 06:24:21;;;;;;;14.10;8.10;;;;;;;21.66;52.58;97884.52;430813;1276;108805;-41
2022/07/26 06:34:28;;;;;;;10.20;8.40;;;;;;;21.51;53.37;97925.49;430675;1275;109024;-41
2022/07/26 06:44:35;;;;;;;13.40;8.80;;;;;;;21.25;54.70;97957.41;430875;1275;97921;-40
2022/07/26 06:54:42;;;;;;;13.30;8.70;;;;;;;20.95;55.96;97964.79;429917;1276;718294;-42
2022/07/26 07:04:50;;;;;;;18.50;9.30;;;;;;;20.49;57.34;97977.81;430653;1276;108431;-42
2022/07/26 07:14:57;;;;;;;12.70;9.70;;;;;;;20.27;58.64;97986.42;430841;1276;97543;-42
2022/07/26 07:25:05;;;;;;;15.60;10.50;;;;;;;19.88;60.37;97976.09;430537;1276;107256;-45
2022/07/26 07:35:09;;;;;;;13.20;11.40;;;;;;;19.45;61.97;98005.27;430518;1276;109606;-42
2022/07/26 07:45:17;;;;;;;17.60;11.20;;;;;;;19.30;62.94;98032.13;430838;1275;97393;-41
2022/07/26 07:55:24;;;;;;;17.70;12.90;;;;;;;19.38;63.78;98052.14;430758;1276;108803;-43
2022/07/26 08:05:51;;;;;;;20.20;14.30;;;;;;;19.43;64.68;98074.57;430483;1275;97488;-43
2022/07/26 08:15:57;;;;;;;19.20;15.90;;;;;;;19.38;65.72;98091.81;430118;1276;110453;-45
2022/07/26 08:26:05;;;;;;;18.40;16.30;;;;;;;19.38;66.85;98099.10;430694;1276;109080;-43
2022/07/26 08:36:13;;;;;;;22.30;18.40;;;;;;;19.50;67.14;98115.55;430660;1276;98183;-43
2022/07/26 08:46:20;;;;;;;21.50;19.20;;;;;;;19.65;67.70;98123.35;430469;1276;107776;-43
2022/07/26 08:56:32;;;;;;;20.10;17.20;;;;;;;19.89;68.21;98131.09;430533;1276;97880;-43
2022/07/26 09:06:39;;;;;;;22.20;19.20;;;;;;;20.02;68.47;98144.97;431004;1276;111107;-43
2022/07/26 09:16:56;;;;;;;20.90;17.80;;;;;;;20.02;69.13;98157.41;430880;1276;109087;-42
2022/07/26 09:27:05;;;;;;;19.90;17.40;;;;;;;20.10;69.46;98154.34;430903;1276;97537;-42
2022/07/26 09:37:13;;;;;;;20.40;17.70;;;;;;;20.15;70.59;98140.50;430809;1275;107744;-42
2022/07/26 09:47:20;;;;;;;13.80;12.10;;;;;;;20.37;71.32;98161.30;430725;1276;97930;-42
2022/07/26 09:57:27;;;;;;;10.70;9.60;;;;;;;20.12;71.90;98206.10;430691;1276;110990;-43
2022/07/26 10:07:36;;;;;;;10.10;9.20;;;;;;;19.85;72.18;98223.80;430726;1276;108733;-42
2022/07/26 10:27:50;;;;;;;13.50;12.00;;;;;;;19.51;72.87;98259.27;430806;1276;107575;-44
2022/07/26 10:54:21;;;;;;;13.70;12.30;;;;;;;19.89;73.20;98281.77;419399;1309;649153;-43
2022/07/26 11:04:28;;;;;;;14.60;13.00;;;;;;;19.60;73.45;98253.36;430280;1280;95404;-43
2022/07/26 11:14:35;;;;;;;13.60;11.70;;;;;;;19.39;74.18;98244.23;429992;1280;108418;-44
2022/07/26 11:24:43;;;;;;;14.00;12.20;;;;;;;19.62;74.45;98263.08;430333;1280;109037;-43
2022/07/26 11:34:57;;;;;;;14.20;12.00;;;;;;;20.09;74.00;98279.33;430387;1279;95213;-42
2022/07/26 11:45:09;;;;;;;13.80;10.40;;;;;;;20.20;73.83;98288.45;430498;1280;108403;-42
2022/07/26 11:55:24;;;;;;;18.50;11.40;;;;;;;20.18;73.86;98299.16;430615;1279;109074;-43
2022/07/26 12:05:32;;;;;;;13.00;11.60;;;;;;;20.38;73.83;98301.02;430368;1280;95440;-42
2022/07/26 12:15:51;;;;;;;15.90;12.10;;;;;;;20.58;73.55;98300.30;430817;1276;109535;-43
2022/07/26 12:26:17;;;;;;;18.50;11.40;;;;;;;20.63;73.53;98292.70;431155;1277;108888;-43
2022/07/26 12:36:25;;;;;;;14.20;10.70;;;;;;;20.74;73.37;98290.63;430737;1276;95412;-41
2022/07/26 12:46:36;;;;;;;13.60;10.40;;;;;;;20.81;73.06;98298.19;430419;1277;109890;-42
2022/07/26 12:56:44;;;;;;;13.50;9.90;;;;;;;20.87;72.95;98301.46;430826;1277;108765;-43
2022/07/26 13:06:55;;;;;;;11.80;9.20;;;;;;;21.00;72.89;98302.38;430855;1277;95566;-43
2022/07/26 13:17:03;;;;;;;13.50;10.80;;;;;;;20.89;72.62;98299.36;430758;1276;107433;-40
2022/07/26 13:27:10;;;;;;;13.90;9.30;;;;;;;20.92;72.44;98306.40;430708;1277;108885;-40
2022/07/26 13:37:18;;;;;;;10.90;8.70;;;;;;;21.16;72.53;98314.04;430415;1277;96185;-40
2022/07/26 13:47:25;;;;;;;10.50;8.70;;;;;;;21.24;72.20;98311.86;430835;1275;109025;-42
2022/07/26 13:57:32;;;;;;;16.50;10.40;;;;;;;21.27;72.18;98314.07;430806;1277;109039;-41
2022/07/26 14:07:59;;;;;;;13.40;10.30;;;;;;;21.16;72.26;98311.25;430804;1275;96178;-41
2022/07/26 14:18:07;;;;;;;12.40;9.30;;;;;;;21.02;72.17;98316.77;430940;1276;109710;-41
2022/07/26 14:28:13;;;;;;;15.70;9.60;;;;;;;20.92;72.20;98322.71;431023;1276;108469;-40
2022/07/26 14:38:20;;;;;;;10.90;9.50;;;;;;;20.84;72.32;98326.66;430851;1277;95398;-42
2022/07/26 14:48:34;;;;;;;14.50;10.50;;;;;;;20.86;72.66;98323.52;430748;1277;108989;-41
2022/07/26 14:59:00;;;;;;;13.30;9.50;;;;;;;20.96;72.87;98317.23;430862;1276;96150;-41
2022/07/26 15:09:07;;;;;;;16.10;9.90;;;;;;;21.07;72.84;98304.04;430760;1275;110239;-41
2022/07/26 15:19:14;;;;;;;15.50;11.30;;;;;;;21.15;72.82;98296.48;430769;1277;108842;-41
2022/07/26 15:29:22;;;;;;;13.00;9.10;;;;;;;21.46;72.97;98302.73;431002;1275;96125;-41
2022/07/26 15:39:29;;;;;;;10.60;9.10;;;;;;;21.73;72.72;98301.77;431372;1276;108874;-41
2022/07/26 17:42:59;;;;;;;9.70;7.20;;;;;;;21.62;71.20;98272.70;430733;1277;95622;-42
2022/07/26 17:53:06;;;;;;;8.10;6.50;;;;;;;21.61;71.26;98277.80;430456;1277;108507;-41
2022/07/26 18:03:13;;;;;;;13.20;7.70;;;;;;;21.54;71.19;98284.22;430407;1277;108556;-41
2022/07/26 18:13:20;;;;;;;12.50;9.10;;;;;;;21.42;71.07;98283.40;430587;1277;108842;-42
2022/07/26 18:23:27;;;;;;;12.70;7.30;;;;;;;21.22;70.99;98289.54;430436;1277;96034;-42
2022/07/26 18:33:34;;;;;;;14.70;8.00;;;;;;;21.03;71.09;98295.31;430850;1277;94851;-42
2022/07/26 18:53:49;;;;;;;12.90;9.50;;;;;;;20.74;71.19;98308.88;430533;1277;108902;-43
2022/07/26 19:03:56;;;;;;;14.00;11.60;;;;;;;20.50;71.54;98314.15;430807;1277;109423;-43
2022/07/26 19:14:02;;;;;;;16.00;12.40;;;;;;;20.13;71.78;98318.05;430760;1277;96174;-43
2022/07/26 19:24:10;;;;;;;18.20;12.60;;;;;;;19.93;72.18;98324.14;430706;1277;108767;-43
2022/07/26 19:34:16;;;;;;;14.40;12.60;;;;;;;19.74;72.61;98327.41;430561;1277;95355;-43
2022/07/26 19:44:23;;;;;;;16.00;12.70;;;;;;;19.57;72.74;98331.89;430567;1277;109798;-42
2022/07/26 19:54:30;;;;;;;18.50;13.70;;;;;;;19.43;73.20;98332.34;430404;1276;108780;-42
2022/07/26 20:04:37;;;;;;;19.80;13.20;;;;;;;19.33;73.26;98340.10;430621;1277;96151;-41
2022/07/26 20:14:51;;;;;;;16.50;14.00;;;;;;;19.29;73.36;98340.96;430460;1277;109011;-40
2022/07/26 20:24:59;;;;;;;24.20;15.50;;;;;;;19.25;73.61;98346.07;430761;1277;96147;-42
2022/07/26 20:35:08;;;;;;;19.30;16.00;;;;;;;19.13;73.83;98352.37;430654;1277;109671;-41
2022/07/26 20:45:15;;;;;;;22.90;17.10;;;;;;;19.11;73.86;98357.81;430426;1277;106092;-41
2022/07/26 21:05:29;;;;;;;28.00;19.90;;;;;;;18.96;74.29;98364.22;430634;1277;108791;-41
2022/07/26 21:15:40;;;;;;;23.50;20.40;;;;;;;18.90;74.41;98360.42;430738;1277;96140;-41
2022/07/26 21:25:48;;;;;;;25.10;18.30;;;;;;;18.85;74.23;98365.86;430856;1276;109703;-41
2022/07/26 21:36:04;;;;;;;21.60;16.80;;;;;;;18.79;74.42;98372.61;430891;1277;108969;-41
2022/07/26 21:46:12;;;;;;;22.70;18.00;;;;;;;18.65;74.56;98380.38;430717;1277;95810;-41
2022/07/26 21:56:19;;;;;;;21.90;16.40;;;;;;;18.52;74.81;98377.27;430703;1277;108058;-41
2022/07/26 22:06:27;;;;;;;16.80;14.50;;;;;;;18.50;74.78;98380.83;430203;1277;95714;-41
2022/07/26 22:16:34;;;;;;;19.80;15.90;;;;;;;18.29;75.02;98378.73;430356;1277;109565;-41
2022/07/26 22:26:42;;;;;;;24.90;16.30;;;;;;;18.17;74.85;98383.36;430274;1277;108782;-42
2022/07/26 22:36:49;;;;;;;19.80;14.00;;;;;;;18.00;74.89;98381.29;430343;1277;96138;-42
2022/07/26 22:46:56;;;;;;;18.00;14.90;;;;;;;17.85;74.99;98389.02;430305;1277;109287;-42
2022/07/26 22:57:04;;;;;;;23.00;16.10;;;;;;;17.63;75.02;98390.92;430494;1277;96701;-41
2022/07/26 23:07:11;;;;;;;22.20;15.90;;;;;;;17.37;75.00;98393.49;430707;1277;109986;-41
2022/07/26 23:17:19;;;;;;;19.70;15.40;;;;;;;17.14;75.43;98389.92;430518;1277;108848;-41
2022/07/26 23:27:26;;;;;;;20.20;16.20;;;;;;;17.00;75.76;98388.04;430492;1277;96841;-42
2022/07/26 23:37:33;;;;;;;19.00;14.50;;;;;;;16.90;75.99;98390.13;430507;1277;108794;-42
2022/07/26 23:47:40;;;;;;;25.80;16.00;;;;;;;16.78;76.10;98397.95;432496;1272;96055;-41
2022/07/26 23:57:48;;;;;;;19.00;16.60;;;;;;;16.64;76.27;98407.23;432384;1273;108178;-41
